Lanzhou, China
Current Conditions -  °F | °C
As of 9:00 AM on Sunday 23 Nov 2014 (Local Time) from ZLLL Reporting Station
Clear Clear  
Wind Chill: 21°   Ceiling: Unl
Heat Index: 27°   Visibility: 6mi
Dew Point: 19°   Wind: 4mph
Humidity: 74%   Direction: 320°NW
Pressure: 30.21"   Gusts: NA
Location:  36.05°N, 103.68°E
Report Text: ZLLL 230100Z 32002MPS CAVOK M03/M07 Q1023 NOSIG
Loading
Personal Weather Stations






























Interactive Weather Map New forecast layout! Learn more

10-Day Weather Forecast

Advertisements
Track Severe Weather on mobile